Time;durP1;ratioP1;P1;durP2;ratioP2;P2;SDS_P1;SDS_P2;PMS_P1;PMS_P2;Temp;Humidity;BMP_temperature;BMP_pressure;BME280_temperature;BME280_humidity;BME280_pressure;Samples;Min_cycle;Max_cycle;Signal;HPM_P1;HPM_P2
2021/04/14 00:01:00;;;;;;;11.52;8.27;;;-0.30;73.70;;;;;;5186363;28;20045;-65
2021/04/14 00:03:32;;;;;;;11.05;8.27;;;-0.40;74.40;;;;;;5189066;28;20725;-64
2021/04/14 00:06:06;;;;;;;10.60;7.93;;;-0.40;74.20;;;;;;5185948;28;20061;-65
2021/04/14 00:08:37;;;;;;;11.20;7.55;;;-0.50;74.50;;;;;;5187461;28;20039;-64
2021/04/14 00:11:15;;;;;;;10.00;7.57;;;-0.60;74.10;;;;;;5187834;28;20124;-64
2021/04/14 00:13:47;;;;;;;11.32;7.93;;;-0.60;73.70;;;;;;5189667;28;20659;-64
2021/04/14 00:16:24;;;;;;;10.85;7.40;;;-0.60;73.70;;;;;;5187207;28;20814;-65
2021/04/14 00:18:56;;;;;;;10.68;7.78;;;-0.60;73.90;;;;;;5190055;28;20825;-64
2021/04/14 00:21:28;;;;;;;11.27;8.02;;;-0.70;73.70;;;;;;5188412;28;20056;-64
2021/04/14 00:24:00;;;;;;;10.63;7.63;;;-0.70;74.30;;;;;;5182882;28;20077;-63
2021/04/14 00:26:31;;;;;;;10.27;7.55;;;-0.70;73.70;;;;;;5179379;28;20050;-64
2021/04/14 00:29:03;;;;;;;10.43;7.70;;;-0.70;74.20;;;;;;5172794;28;20045;-65
2021/04/14 00:31:35;;;;;;;10.70;7.45;;;-0.80;74.00;;;;;;5179916;28;20045;-65
2021/04/14 00:34:09;;;;;;;11.50;7.95;;;-0.80;73.90;;;;;;5177624;28;20053;-65
2021/04/14 00:36:42;;;;;;;10.93;7.97;;;-0.70;74.70;;;;;;5187825;28;20046;-65
2021/04/14 00:39:18;;;;;;;14.27;9.25;;;-0.70;75.30;;;;;;5195078;28;20388;-65
2021/04/14 00:41:51;;;;;;;11.85;8.80;;;-0.60;76.00;;;;;;5187177;28;20053;-65
2021/04/14 00:44:23;;;;;;;12.77;8.63;;;-0.60;75.20;;;;;;5181260;28;20050;-65
2021/04/14 00:46:54;;;;;;;12.35;9.15;;;-0.60;74.20;;;;;;5195002;28;20403;-65
2021/04/14 00:49:28;;;;;;;13.13;9.10;;;-0.70;75.50;;;;;;5193720;28;20115;-64
2021/04/14 00:52:00;;;;;;;12.07;8.70;;;-0.70;75.70;;;;;;5186978;28;20128;-65
2021/04/14 00:54:31;;;;;;;12.30;8.68;;;-0.60;75.70;;;;;;5189691;28;20045;-67
2021/04/14 00:57:03;;;;;;;13.07;8.23;;;-0.60;76.10;;;;;;5191264;28;20046;-67
2021/04/14 00:59:35;;;;;;;10.57;7.47;;;-0.50;75.50;;;;;;5190330;28;20046;-66
2021/04/14 01:02:07;;;;;;;11.30;7.88;;;-0.60;75.00;;;;;;5176725;28;20046;-65
2021/04/14 01:04:40;;;;;;;11.43;8.30;;;-0.70;74.30;;;;;;5190018;28;20535;-65
2021/04/14 01:07:11;;;;;;;11.25;8.20;;;-0.80;75.00;;;;;;5186392;28;20073;-65
2021/04/14 01:09:42;;;;;;;11.98;8.48;;;-0.80;75.50;;;;;;5198284;28;20416;-65
2021/04/14 01:12:14;;;;;;;11.45;8.13;;;-0.80;74.50;;;;;;5171985;28;20660;-66
2021/04/14 01:14:45;;;;;;;9.32;7.07;;;-1.00;74.20;;;;;;5170814;28;20080;-65
2021/04/14 01:17:17;;;;;;;10.98;7.90;;;-1.10;73.50;;;;;;5200849;28;20045;-66
2021/04/14 01:19:48;;;;;;;11.25;7.82;;;-1.10;73.50;;;;;;5187281;28;20096;-66
2021/04/14 01:22:20;;;;;;;10.63;7.95;;;-1.10;73.70;;;;;;5191840;28;20075;-65
2021/04/14 01:24:51;;;;;;;11.77;8.30;;;-1.20;74.00;;;;;;5193293;28;20041;-66
2021/04/14 01:27:23;;;;;;;12.05;8.68;;;-1.20;74.60;;;;;;5192089;28;20111;-65
2021/04/14 01:29:54;;;;;;;11.85;8.02;;;-1.20;74.90;;;;;;5189571;28;20038;-65
2021/04/14 01:32:28;;;;;;;10.43;7.60;;;-1.30;74.90;;;;;;5190128;28;20053;-64
2021/04/14 01:35:00;;;;;;;10.20;7.72;;;-1.30;74.70;;;;;;5189626;28;20058;-64
2021/04/14 01:37:31;;;;;;;12.55;8.90;;;-1.30;74.70;;;;;;5188696;28;20053;-65
2021/04/14 01:40:03;;;;;;;12.80;8.38;;;-1.30;75.50;;;;;;5192471;28;20119;-66
2021/04/14 01:42:35;;;;;;;13.07;8.95;;;-1.30;75.90;;;;;;5189421;28;20050;-64
2021/04/14 01:45:10;;;;;;;12.52;8.90;;;-1.20;76.00;;;;;;5194832;28;20565;-64
2021/04/14 01:47:41;;;;;;;12.10;9.00;;;-1.20;76.20;;;;;;5195677;28;20049;-64
2021/04/14 01:50:16;;;;;;;12.82;9.10;;;-1.00;76.30;;;;;;5186318;28;20528;-64
2021/04/14 01:52:48;;;;;;;10.55;7.50;;;-1.00;76.20;;;;;;5189642;28;20129;-68
2021/04/14 01:55:20;;;;;;;10.73;7.85;;;-1.00;75.20;;;;;;5187819;28;20582;-65
2021/04/14 01:57:52;;;;;;;12.55;9.13;;;-1.00;75.10;;;;;;5190412;28;20084;-65
2021/04/14 02:00:50;;;;;;;11.60;8.57;;;-1.00;75.60;;;;;;5190418;28;20477;-65
2021/04/14 02:03:24;;;;;;;11.68;8.73;;;-1.10;75.70;;;;;;5189347;28;20046;-64
2021/04/14 02:05:56;;;;;;;11.35;7.90;;;-1.10;76.30;;;;;;5188975;28;20049;-65
2021/04/14 02:08:27;;;;;;;13.38;8.90;;;-1.10;75.90;;;;;;5189994;28;20037;-65
2021/04/14 02:10:59;;;;;;;11.43;8.45;;;-1.10;75.70;;;;;;5188594;28;20142;-65
2021/04/14 02:13:35;;;;;;;13.23;8.88;;;-1.10;75.10;;;;;;5190110;28;20037;-64
2021/04/14 02:16:14;;;;;;;12.70;9.60;;;-1.20;75.70;;;;;;5188247;28;20049;-65
2021/04/14 02:18:46;;;;;;;12.70;9.10;;;-1.10;76.40;;;;;;5191276;28;20519;-65
2021/04/14 02:21:18;;;;;;;11.15;8.32;;;-1.10;75.90;;;;;;5190341;28;20049;-66
2021/04/14 02:23:50;;;;;;;11.95;8.43;;;-1.10;74.10;;;;;;5189747;28;20187;-66
2021/04/14 02:26:23;;;;;;;10.80;7.90;;;-1.20;73.80;;;;;;5171776;28;20054;-65
2021/04/14 02:28:55;;;;;;;10.75;8.02;;;-1.20;74.20;;;;;;5189806;28;20076;-66
2021/04/14 02:31:30;;;;;;;12.98;8.30;;;-1.10;74.20;;;;;;5189749;28;20049;-65
2021/04/14 02:34:12;;;;;;;14.07;8.80;;;-1.10;75.00;;;;;;5188570;28;20385;-67
2021/04/14 02:36:44;;;;;;;11.70;8.85;;;-1.00;75.10;;;;;;5192078;28;20589;-65
2021/04/14 02:39:15;;;;;;;11.13;7.97;;;-1.00;75.30;;;;;;5186949;28;20126;-65
2021/04/14 02:41:47;;;;;;;11.48;8.70;;;-1.00;74.30;;;;;;5154863;28;20054;-66
2021/04/14 02:44:18;;;;;;;12.30;8.63;;;-1.00;74.30;;;;;;5168143;28;20459;-66
2021/04/14 02:46:50;;;;;;;10.23;7.43;;;-1.20;73.30;;;;;;5166669;28;20112;-66
2021/04/14 02:49:21;;;;;;;12.60;7.75;;;-1.30;73.50;;;;;;5176164;28;20046;-64
2021/04/14 02:51:53;;;;;;;11.10;8.10;;;-1.40;73.60;;;;;;5182350;28;20133;-66
2021/04/14 02:54:25;;;;;;;10.60;8.10;;;-1.40;74.80;;;;;;5186398;28;20049;-65
2021/04/14 02:56:56;;;;;;;10.55;7.90;;;-1.40;74.60;;;;;;5191611;28;20045;-64
2021/04/14 02:59:28;;;;;;;11.27;8.18;;;-1.50;74.10;;;;;;5187706;28;20037;-66
2021/04/14 03:01:59;;;;;;;11.57;8.23;;;-1.40;74.70;;;;;;5183625;28;20042;-64
2021/04/14 03:04:32;;;;;;;10.45;7.40;;;-1.40;74.70;;;;;;5189994;28;20053;-65
2021/04/14 03:07:04;;;;;;;10.02;7.82;;;-1.30;74.20;;;;;;5174413;28;20081;-66
2021/04/14 03:09:35;;;;;;;11.57;7.70;;;-1.10;74.00;;;;;;5169563;28;20496;-65
2021/04/14 03:12:08;;;;;;;10.40;7.53;;;-1.20;73.50;;;;;;5185437;28;20050;-65
2021/04/14 03:14:40;;;;;;;9.63;7.25;;;-1.20;73.60;;;;;;5187210;28;20046;-66
2021/04/14 03:17:11;;;;;;;10.52;7.50;;;-1.20;73.80;;;;;;5191154;28;20534;-64
2021/04/14 03:19:43;;;;;;;12.48;7.72;;;-1.20;73.90;;;;;;5187805;28;20502;-65
2021/04/14 03:22:15;;;;;;;10.75;7.88;;;-1.20;73.60;;;;;;5189010;28;20049;-65
2021/04/14 03:24:46;;;;;;;11.07;7.82;;;-1.30;74.20;;;;;;5190190;28;20125;-65
2021/04/14 03:27:18;;;;;;;9.88;7.20;;;-1.40;73.70;;;;;;5188068;28;20139;-65
2021/04/14 03:29:49;;;;;;;10.35;7.63;;;-1.40;73.00;;;;;;5188632;28;20026;-67
2021/04/14 03:32:21;;;;;;;11.30;8.10;;;-1.50;73.00;;;;;;5189981;28;20052;-64
2021/04/14 03:34:52;;;;;;;11.35;7.88;;;-1.50;74.10;;;;;;5178443;28;20048;-64
2021/04/14 03:37:24;;;;;;;11.55;7.70;;;-1.50;74.60;;;;;;5188835;28;20053;-64
2021/04/14 03:39:56;;;;;;;11.05;7.97;;;-1.50;73.00;;;;;;5187487;28;20037;-65
2021/04/14 03:42:27;;;;;;;12.07;8.00;;;-1.60;73.40;;;;;;5186444;28;20057;-65
2021/04/14 03:45:01;;;;;;;10.30;7.10;;;-1.60;73.30;;;;;;5188735;28;20120;-64
2021/04/14 03:47:33;;;;;;;11.73;7.80;;;-1.60;73.20;;;;;;5166573;28;20050;-66
2021/04/14 03:50:11;;;;;;;10.77;7.40;;;-1.70;73.20;;;;;;5166260;28;20050;-66
2021/04/14 03:52:43;;;;;;;10.80;7.85;;;-1.80;73.50;;;;;;5193024;28;20081;-65
2021/04/14 03:55:17;;;;;;;11.48;8.27;;;-1.90;73.80;;;;;;5195655;28;20032;-65
2021/04/14 03:57:48;;;;;;;11.15;7.65;;;-2.00;74.00;;;;;;5191071;28;20038;-65
2021/04/14 04:00:20;;;;;;;11.48;7.82;;;-2.10;74.60;;;;;;5193267;28;20115;-65
2021/04/14 04:02:52;;;;;;;11.20;8.13;;;-2.20;74.40;;;;;;5194887;28;20523;-65
2021/04/14 04:05:23;;;;;;;11.63;7.60;;;-2.20;74.10;;;;;;5192125;28;20057;-66
2021/04/14 04:07:54;;;;;;;13.73;7.88;;;-2.30;74.30;;;;;;5186710;28;20037;-65
2021/04/14 04:10:26;;;;;;;10.32;7.40;;;-2.40;74.80;;;;;;5190789;28;20095;-65
2021/04/14 04:12:58;;;;;;;9.80;7.18;;;-2.40;74.40;;;;;;5191708;28;20066;-65
2021/04/14 04:15:29;;;;;;;10.10;7.45;;;-2.40;74.50;;;;;;5189154;28;20474;-65
2021/04/14 04:18:02;;;;;;;10.77;7.75;;;-2.40;75.00;;;;;;5191030;28;20553;-65
2021/04/14 04:20:35;;;;;;;10.43;7.63;;;-2.40;74.80;;;;;;5188984;28;20424;-66
2021/04/14 04:23:08;;;;;;;10.23;6.82;;;-2.40;75.10;;;;;;5192455;28;20712;-66
2021/04/14 04:25:40;;;;;;;10.43;7.45;;;-2.50;75.30;;;;;;5194154;28;20045;-64
2021/04/14 04:28:12;;;;;;;10.35;7.10;;;-2.50;74.30;;;;;;5194791;28;20133;-65
2021/04/14 04:30:44;;;;;;;10.90;7.43;;;-2.60;74.60;;;;;;5194159;28;20432;-64
2021/04/14 04:33:15;;;;;;;9.77;6.93;;;-2.60;75.00;;;;;;5194211;28;20049;-65
2021/04/14 04:35:47;;;;;;;11.02;7.20;;;-2.60;75.70;;;;;;5187301;28;20073;-66
2021/04/14 04:38:18;;;;;;;13.10;7.47;;;-2.60;76.00;;;;;;5193498;28;20164;-67
2021/04/14 04:40:50;;;;;;;10.63;6.93;;;-2.60;76.10;;;;;;5190113;28;20119;-68
2021/04/14 04:43:22;;;;;;;10.65;7.60;;;-2.60;75.70;;;;;;5191891;28;20491;-64
2021/04/14 04:45:55;;;;;;;11.88;6.85;;;-2.60;75.90;;;;;;5192282;28;20042;-65
2021/04/14 04:48:26;;;;;;;10.05;6.65;;;-2.50;75.40;;;;;;5191159;28;20042;-66
2021/04/14 04:50:58;;;;;;;11.35;7.05;;;-2.50;75.20;;;;;;5191626;28;20070;-65
2021/04/14 04:53:29;;;;;;;9.65;6.50;;;-2.50;75.70;;;;;;5188844;28;20084;-64
2021/04/14 04:56:04;;;;;;;9.75;6.20;;;-2.50;74.50;;;;;;5186201;28;20075;-68
2021/04/14 04:58:36;;;;;;;9.40;6.40;;;-2.50;73.90;;;;;;5187791;28;20781;-65
2021/04/14 05:01:08;;;;;;;10.05;7.22;;;-2.50;74.40;;;;;;5189735;28;20046;-65
2021/04/14 05:03:44;;;;;;;9.80;6.50;;;-2.40;74.40;;;;;;5190383;28;20511;-65
2021/04/14 05:06:16;;;;;;;10.75;6.45;;;-2.40;74.80;;;;;;5188721;28;20716;-65
2021/04/14 05:08:48;;;;;;;10.88;6.45;;;-2.40;73.70;;;;;;5189161;28;20045;-65
2021/04/14 05:11:19;;;;;;;11.63;7.13;;;-2.40;73.40;;;;;;5167482;28;20041;-66
2021/04/14 05:13:50;;;;;;;8.95;6.75;;;-2.30;74.30;;;;;;5167140;28;20189;-65
2021/04/14 05:16:22;;;;;;;9.15;6.25;;;-2.30;74.10;;;;;;5174188;28;20053;-64
2021/04/14 05:18:54;;;;;;;10.80;6.80;;;-2.20;73.50;;;;;;5189651;28;20049;-63
2021/04/14 05:21:26;;;;;;;10.48;6.72;;;-2.10;73.80;;;;;;5194786;28;20046;-64
2021/04/14 05:23:57;;;;;;;10.73;7.47;;;-1.90;74.90;;;;;;5188521;28;20045;-64
2021/04/14 05:26:29;;;;;;;12.77;7.72;;;-1.70;74.90;;;;;;5186733;28;20404;-64
2021/04/14 05:29:01;;;;;;;13.23;8.77;;;-1.60;75.40;;;;;;5189107;28;20053;-64
2021/04/14 05:31:37;;;;;;;13.07;8.10;;;-1.40;75.40;;;;;;5190580;28;20096;-66
2021/04/14 05:34:09;;;;;;;10.95;7.80;;;-1.30;74.90;;;;;;5185468;28;20040;-65
2021/04/14 05:36:41;;;;;;;10.48;7.05;;;-1.10;74.30;;;;;;5171170;28;20459;-66
2021/04/14 05:39:13;;;;;;;9.75;6.75;;;-1.10;72.40;;;;;;5188833;28;20045;-64
2021/04/14 05:41:45;;;;;;;9.40;6.88;;;-1.00;72.40;;;;;;5188775;28;20502;-64
2021/04/14 05:44:17;;;;;;;8.95;6.20;;;-0.70;72.00;;;;;;5191117;28;20451;-66
2021/04/14 05:46:48;;;;;;;11.57;7.30;;;-0.50;71.20;;;;;;5186853;28;20037;-67
2021/04/14 05:49:21;;;;;;;19.35;12.07;;;-0.30;71.10;;;;;;5188687;28;20040;-64
2021/04/14 05:51:52;;;;;;;22.42;13.32;;;-0.10;71.60;;;;;;5185753;28;20096;-64
2021/04/14 05:54:23;;;;;;;15.43;10.13;;;0.00;71.90;;;;;;5188633;28;20042;-64
2021/04/14 05:56:55;;;;;;;14.48;9.63;;;0.10;71.80;;;;;;5188861;28;20415;-66
2021/04/14 05:59:26;;;;;;;11.70;8.73;;;0.20;72.30;;;;;;5195942;28;20128;-65
2021/04/14 06:01:58;;;;;;;14.35;10.13;;;0.30;71.60;;;;;;5186826;28;20435;-64
2021/04/14 06:04:30;;;;;;;13.95;10.00;;;0.50;71.20;;;;;;5190618;28;20046;-64
2021/04/14 06:07:01;;;;;;;13.25;9.13;;;0.60;71.20;;;;;;5175354;28;20093;-67
2021/04/14 06:09:33;;;;;;;12.15;8.93;;;0.80;70.90;;;;;;5170038;28;20504;-66
2021/04/14 06:12:04;;;;;;;13.38;8.80;;;0.90;70.70;;;;;;5185887;28;20048;-67
2021/04/14 06:14:36;;;;;;;12.05;8.27;;;1.00;70.30;;;;;;5188049;28;20046;-65
2021/04/14 06:17:08;;;;;;;12.63;8.82;;;1.10;69.80;;;;;;5188707;28;20052;-64
2021/04/14 06:19:41;;;;;;;12.60;8.90;;;1.20;69.00;;;;;;5189547;28;20471;-64
2021/04/14 06:22:12;;;;;;;11.35;9.02;;;1.30;69.10;;;;;;5183879;28;20056;-64
2021/04/14 06:24:44;;;;;;;13.95;9.27;;;1.40;69.10;;;;;;5187361;28;20045;-64
2021/04/14 06:27:28;;;;;;;12.70;9.13;;;1.50;68.50;;;;;;5186386;28;20089;-65
2021/04/14 06:29:59;;;;;;;13.52;8.90;;;1.70;68.60;;;;;;5173976;28;20253;-64
2021/04/14 06:32:31;;;;;;;12.25;8.65;;;1.80;67.60;;;;;;5187515;28;20045;-65
2021/04/14 06:35:03;;;;;;;12.20;8.18;;;1.80;66.30;;;;;;5186420;28;20125;-65
2021/04/14 06:37:34;;;;;;;12.18;8.50;;;1.90;67.40;;;;;;5186544;28;20120;-64
2021/04/14 06:43:12;;;;;;;11.77;8.82;;;2.10;65.10;;;;;;5190391;28;20091;-65
2021/04/14 06:45:47;;;;;;;10.43;7.72;;;2.10;65.90;;;;;;5194936;28;20565;-64
2021/04/14 06:48:44;;;;;;;11.90;8.65;;;2.30;65.00;;;;;;5189469;28;20447;-67
2021/04/14 06:51:35;;;;;;;15.40;9.75;;;2.40;64.70;;;;;;5172588;28;20124;-65
2021/04/14 06:54:22;;;;;;;12.60;8.90;;;2.60;64.10;;;;;;5189496;28;20435;-64
2021/04/14 06:56:58;;;;;;;10.95;8.45;;;2.80;64.30;;;;;;5188224;28;20049;-64
2021/04/14 06:59:33;;;;;;;13.27;8.80;;;2.70;64.90;;;;;;5190301;28;20045;-65
2021/04/14 07:02:10;;;;;;;11.98;8.48;;;2.90;64.20;;;;;;5187592;28;20111;-66
2021/04/14 07:05:28;;;;;;;11.05;8.23;;;3.10;63.10;;;;;;5188103;28;20041;-65
2021/04/14 07:08:03;;;;;;;11.48;8.20;;;3.20;63.30;;;;;;5190633;28;20515;-64
2021/04/14 07:10:39;;;;;;;10.88;7.97;;;3.40;63.20;;;;;;5183314;28;20050;-66
2021/04/14 07:13:12;;;;;;;11.00;8.27;;;3.60;60.80;;;;;;5166016;28;20049;-64
2021/04/14 07:15:44;;;;;;;12.82;8.55;;;3.60;61.60;;;;;;5170973;28;20049;-64
2021/04/14 07:18:42;;;;;;;12.20;8.27;;;3.70;61.40;;;;;;5190414;28;20042;-65
2021/04/14 07:21:30;;;;;;;17.33;10.27;;;3.90;61.30;;;;;;5187250;28;20060;-64
2021/04/14 07:24:25;;;;;;;11.95;8.60;;;3.90;58.80;;;;;;5186804;28;20442;-67
2021/04/14 07:27:34;;;;;;;11.07;7.95;;;4.00;59.70;;;;;;5185157;28;20479;-65
2021/04/14 07:30:31;;;;;;;11.02;7.90;;;3.90;58.50;;;;;;5134897;28;20115;-64
2021/04/14 07:33:26;;;;;;;9.88;7.82;;;4.00;59.30;;;;;;5166458;28;20137;-69
2021/04/14 07:36:06;;;;;;;10.77;7.88;;;4.20;59.70;;;;;;5167052;28;20042;-64
2021/04/14 07:38:45;;;;;;;11.65;7.50;;;4.40;57.80;;;;;;5164370;28;20125;-64
2021/04/14 07:41:19;;;;;;;9.60;7.43;;;4.50;58.80;;;;;;5176659;28;20052;-65
2021/04/14 07:44:08;;;;;;;11.95;7.97;;;4.60;57.80;;;;;;5190491;28;20049;-64
2021/04/14 07:46:44;;;;;;;12.48;8.73;;;4.80;57.90;;;;;;5187003;28;20046;-64
2021/04/14 07:49:19;;;;;;;12.35;8.23;;;4.90;54.70;;;;;;5185663;28;20038;-67
2021/04/14 07:51:50;;;;;;;12.70;8.35;;;4.70;57.10;;;;;;5184198;28;20081;-66
2021/04/14 07:54:23;;;;;;;12.27;8.13;;;4.90;56.60;;;;;;5191636;28;20045;-64
2021/04/14 07:56:56;;;;;;;9.23;6.55;;;5.10;55.90;;;;;;5190303;28;20133;-64
2021/04/14 07:59:27;;;;;;;9.57;6.40;;;5.10;55.60;;;;;;5187237;28;20559;-65
2021/04/14 08:02:01;;;;;;;14.25;9.05;;;5.00;54.40;;;;;;5187479;28;20053;-64
2021/04/14 08:05:02;;;;;;;19.65;12.45;;;5.10;53.10;;;;;;5188961;28;20045;-66
2021/04/14 08:07:43;;;;;;;14.15;9.07;;;5.00;54.60;;;;;;5169455;28;20389;-66
2021/04/14 08:10:26;;;;;;;15.40;11.07;;;5.20;54.10;;;;;;5167361;28;20486;-64
2021/04/14 08:13:04;;;;;;;13.88;10.35;;;5.30;53.20;;;;;;5189689;28;20495;-65
2021/04/14 08:15:41;;;;;;;9.52;6.60;;;5.30;54.20;;;;;;5186645;28;20438;-64
2021/04/14 08:18:32;;;;;;;10.82;6.93;;;5.00;54.90;;;;;;5192457;28;20116;-64
2021/04/14 08:21:03;;;;;;;;;;;4.80;54.40;;;;;;5187725;28;20166;-66
2021/04/14 08:23:35;;;;;;;10.55;7.43;;;4.80;55.70;;;;;;5189900;28;19921;-65
2021/04/14 08:26:18;;;;;;;10.35;7.05;;;5.10;55.20;;;;;;5188404;28;20051;-64
2021/04/14 08:28:51;;;;;;;9.70;6.22;;;5.20;54.60;;;;;;5190315;28;20038;-65
2021/04/14 08:31:47;;;;;;;10.45;7.18;;;5.30;53.40;;;;;;5176508;28;20122;-64
2021/04/14 08:34:32;;;;;;;13.73;8.50;;;5.40;53.70;;;;;;5181156;28;20508;-66
2021/04/14 08:37:20;;;;;;;12.88;7.93;;;5.60;54.70;;;;;;5184444;28;20054;-66
2021/04/14 08:39:55;;;;;;;10.23;6.82;;;5.70;53.50;;;;;;5187008;28;20045;-65
2021/04/14 08:42:33;;;;;;;10.23;6.43;;;5.60;54.10;;;;;;5190935;28;20057;-64
2021/04/14 08:45:05;;;;;;;9.77;5.93;;;5.50;54.40;;;;;;5188195;28;20727;-66
2021/04/14 08:47:41;;;;;;;9.57;6.57;;;5.60;52.10;;;;;;5188331;28;20144;-64
2021/04/14 08:50:27;;;;;;;10.85;6.82;;;5.70;52.80;;;;;;5191856;28;21016;-64
2021/04/14 08:53:03;;;;;;;9.68;6.70;;;6.00;52.50;;;;;;5191868;28;20049;-64
2021/04/14 08:55:37;;;;;;;9.10;6.40;;;6.20;53.30;;;;;;5188309;28;20125;-64
2021/04/14 08:58:09;;;;;;;7.70;5.50;;;6.50;52.30;;;;;;5190538;28;20103;-64
2021/04/14 09:00:41;;;;;;;8.00;5.93;;;6.40;49.10;;;;;;5191021;28;20475;-64
2021/04/14 09:03:18;;;;;;;9.73;6.55;;;6.30;48.80;;;;;;5199423;28;20100;-64
2021/04/14 09:05:50;;;;;;;9.40;6.10;;;6.30;49.50;;;;;;5189061;28;20045;-65
2021/04/14 09:09:14;;;;;;;7.78;6.10;;;6.40;49.70;;;;;;5191224;28;20045;-64
2021/04/14 09:12:15;;;;;;;7.97;5.32;;;6.40;49.90;;;;;;5191170;28;20038;-63
2021/04/14 09:14:46;;;;;;;13.32;7.57;;;6.60;49.60;;;;;;5191237;28;20104;-65
2021/04/14 09:17:20;;;;;;;9.18;5.55;;;6.60;49.40;;;;;;5188857;28;20045;-66
2021/04/14 09:19:53;;;;;;;7.80;5.15;;;6.70;48.10;;;;;;5190199;28;20131;-64
2021/04/14 09:22:29;;;;;;;7.65;5.40;;;6.80;47.40;;;;;;5189569;28;20145;-63
2021/04/14 09:25:04;;;;;;;7.13;4.97;;;6.80;48.30;;;;;;5189547;28;20058;-64
2021/04/14 09:27:38;;;;;;;7.00;4.63;;;6.90;46.50;;;;;;5167820;28;20034;-64
2021/04/14 09:30:31;;;;;;;6.38;4.63;;;6.90;47.20;;;;;;5168804;28;20057;-64
2021/04/14 09:33:05;;;;;;;8.90;5.18;;;7.10;47.20;;;;;;5169325;28;20489;-66
2021/04/14 09:35:42;;;;;;;7.22;4.95;;;7.10;43.80;;;;;;5170296;28;20161;-64
2021/04/14 09:38:34;;;;;;;7.00;4.90;;;7.10;44.90;;;;;;5190895;28;20046;-64
2021/04/14 09:41:23;;;;;;;6.53;4.93;;;7.20;42.80;;;;;;5188868;28;20100;-65
2021/04/14 09:44:01;;;;;;;6.67;5.13;;;7.10;41.40;;;;;;5189097;28;20038;-64
2021/04/14 09:46:38;;;;;;;5.95;4.60;;;6.80;43.00;;;;;;5186555;28;20081;-68
2021/04/14 09:49:15;;;;;;;6.65;4.68;;;6.70;44.50;;;;;;5190510;28;20119;-64
2021/04/14 09:51:59;;;;;;;7.38;4.50;;;6.70;43.50;;;;;;5189097;28;20049;-65
2021/04/14 09:54:36;;;;;;;6.18;3.97;;;6.80;43.60;;;;;;5188397;28;20044;-63
2021/04/14 09:57:17;;;;;;;6.60;4.00;;;6.70;42.20;;;;;;5188158;28;20820;-63
2021/04/14 09:59:49;;;;;;;7.82;5.00;;;6.80;42.50;;;;;;5201069;28;20511;-66
2021/04/14 10:02:23;;;;;;;6.80;5.00;;;7.00;44.20;;;;;;5172482;28;20424;-64
2021/04/14 10:04:55;;;;;;;6.90;5.13;;;7.30;43.70;;;;;;5169408;28;20050;-63
2021/04/14 10:07:32;;;;;;;5.47;4.05;;;7.60;43.10;;;;;;5188612;28;20042;-64
2021/04/14 10:10:21;;;;;;;9.15;4.95;;;7.70;39.40;;;;;;5185695;28;20045;-65
2021/04/14 10:12:53;;;;;;;7.57;4.88;;;7.60;40.70;;;;;;5167588;28;20049;-63
2021/04/14 10:15:32;;;;;;;5.70;4.15;;;7.60;41.50;;;;;;5168366;28;20385;-63
2021/04/14 10:18:16;;;;;;;6.85;4.90;;;7.80;41.10;;;;;;5170750;28;20689;-65
2021/04/14 10:20:48;;;;;;;5.85;4.93;;;7.90;39.40;;;;;;5172720;28;20053;-66
2021/04/14 10:23:24;;;;;;;7.28;4.28;;;8.10;40.20;;;;;;5189947;28;20068;-65
2021/04/14 10:26:07;;;;;;;8.68;5.13;;;8.00;39.50;;;;;;5180855;28;20543;-63
2021/04/14 10:28:43;;;;;;;6.43;4.70;;;7.80;39.00;;;;;;5186216;28;20045;-63
2021/04/14 10:31:21;;;;;;;14.18;9.90;;;7.60;38.90;;;;;;5188176;28;20053;-63
2021/04/14 10:33:53;;;;;;;8.20;5.43;;;7.60;38.40;;;;;;5190080;28;20045;-63
2021/04/14 10:36:31;;;;;;;7.45;4.60;;;7.50;38.60;;;;;;5185779;28;20084;-64
2021/04/14 10:39:18;;;;;;;7.55;5.50;;;7.30;39.20;;;;;;5189637;28;20211;-65
2021/04/14 10:41:50;;;;;;;6.57;4.63;;;7.10;40.60;;;;;;5189119;28;20045;-65
2021/04/14 10:44:25;;;;;;;7.03;4.30;;;7.00;38.60;;;;;;5188251;28;20111;-63
2021/04/14 10:47:02;;;;;;;6.20;4.30;;;6.90;39.00;;;;;;5185840;28;20050;-63
2021/04/14 10:49:36;;;;;;;21.00;13.07;;;6.80;39.40;;;;;;5204342;28;20064;-66
2021/04/14 10:52:22;;;;;;;22.48;13.57;;;6.90;39.60;;;;;;5187874;28;20034;-62
2021/04/14 10:54:59;;;;;;;6.78;4.70;;;7.20;40.40;;;;;;5186452;28;20847;-63
2021/04/14 10:57:41;;;;;;;6.75;4.50;;;7.20;39.40;;;;;;5182845;28;20668;-63
2021/04/14 11:00:23;;;;;;;7.45;5.13;;;7.10;39.00;;;;;;5185896;28;20491;-63
2021/04/14 11:02:54;;;;;;;7.28;4.47;;;7.20;39.80;;;;;;5185551;28;20107;-62
2021/04/14 11:05:26;;;;;;;7.18;4.15;;;7.30;41.40;;;;;;5180057;28;20187;-63
2021/04/14 11:07:59;;;;;;;10.82;5.63;;;7.10;39.90;;;;;;5183971;28;20080;-63
2021/04/14 11:10:36;;;;;;;12.73;10.27;;;7.10;40.60;;;;;;5186693;28;20759;-63
2021/04/14 11:13:16;;;;;;;5.32;3.65;;;6.90;39.30;;;;;;5186594;28;20133;-63
2021/04/14 11:15:48;;;;;;;;;;;6.70;37.40;;;;;;5188775;28;20197;-67
2021/04/14 11:19:04;;;;;;;5.15;3.70;;;6.60;37.90;;;;;;5183527;28;19972;-63
2021/04/14 11:21:37;;;;;;;5.43;4.00;;;6.60;38.30;;;;;;5182779;28;20456;-66
2021/04/14 11:24:17;;;;;;;5.32;3.90;;;6.40;38.90;;;;;;5186647;28;20565;-63
2021/04/14 11:26:54;;;;;;;4.80;3.45;;;6.30;39.80;;;;;;5190363;28;20036;-65
2021/04/14 11:29:29;;;;;;;4.95;3.78;;;6.30;40.20;;;;;;5185148;28;20041;-62
2021/04/14 11:32:13;;;;;;;6.65;3.58;;;6.60;38.90;;;;;;5183926;28;20235;-62
2021/04/14 11:35:04;;;;;;;4.55;3.20;;;6.50;36.50;;;;;;5186494;28;20041;-63
2021/04/14 11:37:35;;;;;;;4.80;3.20;;;6.50;37.70;;;;;;5183588;28;20527;-63
2021/04/14 11:40:19;;;;;;;4.72;3.13;;;6.50;37.60;;;;;;5187287;28;20962;-63
2021/04/14 11:42:54;;;;;;;7.47;3.30;;;6.50;37.70;;;;;;5186247;28;20158;-69
2021/04/14 11:45:31;;;;;;;6.00;3.40;;;7.00;37.60;;;;;;5184746;28;20052;-66
2021/04/14 11:48:11;;;;;;;8.30;3.67;;;7.20;38.50;;;;;;5196356;28;20123;-66
2021/04/14 11:50:44;;;;;;;5.30;3.55;;;7.10;37.20;;;;;;5188596;28;20047;-66
2021/04/14 11:53:29;;;;;;;5.53;3.70;;;7.20;37.50;;;;;;5190067;28;20045;-66
2021/04/14 11:56:00;;;;;;;5.78;3.35;;;7.00;36.10;;;;;;5186929;28;20042;-66
2021/04/14 11:58:46;;;;;;;5.43;3.53;;;6.90;36.50;;;;;;5187594;28;20942;-68
2021/04/14 12:01:26;;;;;;;5.85;3.67;;;7.00;35.00;;;;;;5164691;28;20041;-68
2021/04/14 12:04:15;;;;;;;6.63;3.17;;;7.50;36.50;;;;;;5168136;28;20448;-63
2021/04/14 12:06:46;;;;;;;5.13;3.40;;;7.60;37.00;;;;;;5169163;28;20570;-64
2021/04/14 12:09:18;;;;;;;6.78;3.80;;;7.50;35.70;;;;;;5165500;28;20066;-64
2021/04/14 12:12:09;;;;;;;6.15;3.80;;;7.40;35.20;;;;;;5178699;28;20037;-65
2021/04/14 12:14:40;;;;;;;5.68;3.55;;;7.60;35.80;;;;;;5197507;28;20046;-64
2021/04/14 12:17:12;;;;;;;6.03;3.80;;;7.80;34.70;;;;;;5189722;28;20667;-64
2021/04/14 12:19:44;;;;;;;6.13;3.85;;;8.10;33.20;;;;;;5192903;28;20096;-64
2021/04/14 12:22:16;;;;;;;5.45;4.05;;;8.50;34.80;;;;;;5189954;28;20053;-64
2021/04/14 12:24:47;;;;;;;7.38;4.07;;;8.50;35.30;;;;;;5191010;28;20662;-67
2021/04/14 12:27:26;;;;;;;6.13;4.13;;;8.20;35.30;;;;;;5190544;28;20145;-64
2021/04/14 12:29:57;;;;;;;8.40;4.43;;;7.90;35.50;;;;;;5191321;28;20068;-64
2021/04/14 12:32:29;;;;;;;5.72;4.20;;;7.60;35.90;;;;;;5174722;28;20070;-63
2021/04/14 12:35:01;;;;;;;5.72;3.75;;;7.50;36.90;;;;;;5192259;28;20041;-64
2021/04/14 12:37:32;;;;;;;5.72;3.97;;;7.30;37.30;;;;;;5190213;28;20065;-66
2021/04/14 12:40:05;;;;;;;5.82;4.10;;;7.30;38.40;;;;;;5191780;28;20054;-67
2021/04/14 12:42:36;;;;;;;5.70;4.28;;;7.20;37.10;;;;;;5191940;28;20631;-64
2021/04/14 12:45:47;;;;;;;6.18;3.60;;;7.00;38.30;;;;;;5165703;28;20474;-63
2021/04/14 12:48:22;;;;;;;5.30;3.50;;;7.00;38.70;;;;;;5193479;28;20116;-66
2021/04/14 12:51:11;;;;;;;5.45;4.00;;;7.10;39.30;;;;;;5190942;28;20581;-64
2021/04/14 12:54:01;;;;;;;5.90;4.00;;;7.20;39.60;;;;;;5189087;28;20045;-64
2021/04/14 12:56:38;;;;;;;6.55;4.57;;;7.20;40.30;;;;;;5189609;28;20073;-66
2021/04/14 12:59:29;;;;;;;6.68;4.15;;;7.20;41.20;;;;;;5191046;28;20073;-64
2021/04/14 13:02:13;;;;;;;6.13;4.50;;;7.20;40.40;;;;;;5190994;28;20527;-65
2021/04/14 13:05:09;;;;;;;7.18;4.60;;;7.10;40.60;;;;;;5190525;28;20100;-64
2021/04/14 13:07:58;;;;;;;;;;;7.10;41.50;;;;;;5189025;28;20490;-64
2021/04/14 13:10:38;;;;;;;7.40;4.45;;;7.00;42.20;;;;;;5189882;28;19932;-64
2021/04/14 13:13:10;;;;;;;6.18;4.55;;;7.00;41.70;;;;;;5197750;28;20038;-63
2021/04/14 13:16:02;;;;;;;5.68;4.68;;;7.00;40.70;;;;;;5192560;28;20111;-64
2021/04/14 13:18:36;;;;;;;6.00;4.50;;;7.00;40.90;;;;;;5189137;28;20053;-66
2021/04/14 13:21:31;;;;;;;5.53;4.13;;;7.40;40.00;;;;;;5189877;28;20041;-64
2021/04/14 13:24:24;;;;;;;6.18;4.40;;;7.90;38.80;;;;;;5187790;28;20049;-65
2021/04/14 13:27:11;;;;;;;5.97;4.40;;;8.40;38.10;;;;;;5187630;28;20077;-64
2021/04/14 13:30:04;;;;;;;7.25;5.10;;;8.80;38.10;;;;;;5191639;28;20050;-63
2021/04/14 13:32:49;;;;;;;6.35;4.85;;;8.80;37.60;;;;;;5190098;28;20403;-63
2021/04/14 13:35:29;;;;;;;6.97;4.78;;;8.80;38.80;;;;;;5185377;28;20160;-63
2021/04/14 13:38:13;;;;;;;7.60;4.13;;;8.70;37.20;;;;;;5190004;28;20054;-63